sensor_id;sensor_type;location;lat;lon;timestamp;temperature;humidity
29345;DHT22;16339;48.748;2.222;2023-02-24T00:00:36;12.90;90.30
29345;DHT22;16339;48.748;2.222;2023-02-24T00:39:59;12.90;89.00
29345;DHT22;16339;48.748;2.222;2023-02-24T00:42:44;12.90;89.40
29345;DHT22;16339;48.748;2.222;2023-02-24T00:45:16;12.90;89.30
29345;DHT22;16339;48.748;2.222;2023-02-24T00:47:56;12.90;89.10
29345;DHT22;16339;48.748;2.222;2023-02-24T00:50:40;12.90;89.40
29345;DHT22;16339;48.748;2.222;2023-02-24T00:53:09;12.80;89.30
29345;DHT22;16339;48.748;2.222;2023-02-24T00:55:59;12.90;89.60
29345;DHT22;16339;48.748;2.222;2023-02-24T00:58:39;12.80;89.60
29345;DHT22;16339;48.748;2.222;2023-02-24T01:01:19;12.90;89.70
29345;DHT22;16339;48.748;2.222;2023-02-24T01:04:12;12.90;89.70
29345;DHT22;16339;48.748;2.222;2023-02-24T01:06:56;12.90;89.50
29345;DHT22;16339;48.748;2.222;2023-02-24T01:09:58;12.90;89.50
29345;DHT22;16339;48.748;2.222;2023-02-24T01:12:54;12.90;89.70
29345;DHT22;16339;48.748;2.222;2023-02-24T01:16:01;12.90;89.80
29345;DHT22;16339;48.748;2.222;2023-02-24T01:18:47;12.80;89.70
29345;DHT22;16339;48.748;2.222;2023-02-24T01:21:39;12.80;89.80
29345;DHT22;16339;48.748;2.222;2023-02-24T01:24:40;12.80;90.00
29345;DHT22;16339;48.748;2.222;2023-02-24T01:27:57;12.80;90.00
29345;DHT22;16339;48.748;2.222;2023-02-24T01:30:49;12.80;90.00
29345;DHT22;16339;48.748;2.222;2023-02-24T01:33:46;12.80;90.10
29345;DHT22;16339;48.748;2.222;2023-02-24T01:36:22;12.70;90.00
29345;DHT22;16339;48.748;2.222;2023-02-24T01:39:00;12.70;89.90
29345;DHT22;16339;48.748;2.222;2023-02-24T01:41:47;12.80;90.00
29345;DHT22;16339;48.748;2.222;2023-02-24T01:47:22;12.80;90.00
29345;DHT22;16339;48.748;2.222;2023-02-24T01:50:01;12.80;90.00
29345;DHT22;16339;48.748;2.222;2023-02-24T01:52:35;12.90;90.00
29345;DHT22;16339;48.748;2.222;2023-02-24T01:55:16;12.80;90.00
29345;DHT22;16339;48.748;2.222;2023-02-24T01:58:19;12.80;90.00
29345;DHT22;16339;48.748;2.222;2023-02-24T02:01:18;12.80;90.00
29345;DHT22;16339;48.748;2.222;2023-02-24T02:04:19;12.80;90.00
29345;DHT22;16339;48.748;2.222;2023-02-24T02:10:16;12.80;90.00
29345;DHT22;16339;48.748;2.222;2023-02-24T02:12:59;12.80;90.00
29345;DHT22;16339;48.748;2.222;2023-02-24T02:15:32;12.80;90.00
29345;DHT22;16339;48.748;2.222;2023-02-24T02:18:08;12.70;90.20
29345;DHT22;16339;48.748;2.222;2023-02-24T02:54:52;12.60;90.30
29345;DHT22;16339;48.748;2.222;2023-02-24T02:57:33;12.60;90.20
29345;DHT22;16339;48.748;2.222;2023-02-24T03:00:34;12.60;90.20
29345;DHT22;16339;48.748;2.222;2023-02-24T03:04:32;12.50;90.30
29345;DHT22;16339;48.748;2.222;2023-02-24T03:06:46;12.50;90.50
29345;DHT22;16339;48.748;2.222;2023-02-24T03:09:58;12.40;90.60
29345;DHT22;16339;48.748;2.222;2023-02-24T03:29:35;12.30;91.10
29345;DHT22;16339;48.748;2.222;2023-02-24T03:32:19;12.70;90.90
29345;DHT22;16339;48.748;2.222;2023-02-24T03:34:54;12.60;91.00
29345;DHT22;16339;48.748;2.222;2023-02-24T03:37:26;12.60;91.00
29345;DHT22;16339;48.748;2.222;2023-02-24T03:40:02;12.60;91.10
29345;DHT22;16339;48.748;2.222;2023-02-24T03:42:48;12.50;91.10
29345;DHT22;16339;48.748;2.222;2023-02-24T03:45:21;12.50;91.10
29345;DHT22;16339;48.748;2.222;2023-02-24T03:47:52;12.60;91.10
29345;DHT22;16339;48.748;2.222;2023-02-24T03:50:26;12.60;91.00
29345;DHT22;16339;48.748;2.222;2023-02-24T03:53:01;12.60;91.00
29345;DHT22;16339;48.748;2.222;2023-02-24T03:55:58;12.60;91.00
29345;DHT22;16339;48.748;2.222;2023-02-24T04:08:40;12.50;91.30
29345;DHT22;16339;48.748;2.222;2023-02-24T04:11:23;12.60;91.70
29345;DHT22;16339;48.748;2.222;2023-02-24T04:14:06;12.60;91.70
29345;DHT22;16339;48.748;2.222;2023-02-24T04:16:44;12.60;91.30
29345;DHT22;16339;48.748;2.222;2023-02-24T04:19:34;12.60;91.30
29345;DHT22;16339;48.748;2.222;2023-02-24T04:22:19;12.60;91.40
29345;DHT22;16339;48.748;2.222;2023-02-24T04:24:57;12.70;91.30
29345;DHT22;16339;48.748;2.222;2023-02-24T04:27:51;12.70;91.30
29345;DHT22;16339;48.748;2.222;2023-02-24T04:31:10;12.70;91.20
29345;DHT22;16339;48.748;2.222;2023-02-24T04:33:55;12.80;91.20
29345;DHT22;16339;48.748;2.222;2023-02-24T04:36:53;12.80;91.10
29345;DHT22;16339;48.748;2.222;2023-02-24T04:40:02;12.80;91.00
29345;DHT22;16339;48.748;2.222;2023-02-24T04:43:06;12.80;91.00
29345;DHT22;16339;48.748;2.222;2023-02-24T04:45:54;12.90;91.00
29345;DHT22;16339;48.748;2.222;2023-02-24T04:48:58;12.90;91.00
29345;DHT22;16339;48.748;2.222;2023-02-24T04:52:11;12.80;90.90
29345;DHT22;16339;48.748;2.222;2023-02-24T04:54:51;12.90;90.90
29345;DHT22;16339;48.748;2.222;2023-02-24T05:00:45;12.90;90.80
29345;DHT22;16339;48.748;2.222;2023-02-24T05:03:57;12.80;90.70
29345;DHT22;16339;48.748;2.222;2023-02-24T05:06:39;12.80;90.80
29345;DHT22;16339;48.748;2.222;2023-02-24T05:13:10;12.80;90.60
29345;DHT22;16339;48.748;2.222;2023-02-24T05:16:04;12.80;90.60
29345;DHT22;16339;48.748;2.222;2023-02-24T05:18:54;12.80;90.60
29345;DHT22;16339;48.748;2.222;2023-02-24T05:21:52;12.90;90.70
29345;DHT22;16339;48.748;2.222;2023-02-24T05:24:55;12.80;90.60
29345;DHT22;16339;48.748;2.222;2023-02-24T05:31:17;12.90;90.50
29345;DHT22;16339;48.748;2.222;2023-02-24T05:34:48;12.80;90.50
29345;DHT22;16339;48.748;2.222;2023-02-24T05:37:46;12.80;90.50
29345;DHT22;16339;48.748;2.222;2023-02-24T06:48:23;12.20;91.80
29345;DHT22;16339;48.748;2.222;2023-02-24T06:55:19;12.00;91.50
29345;DHT22;16339;48.748;2.222;2023-02-24T07:01:59;12.10;91.70
29345;DHT22;16339;48.748;2.222;2023-02-24T07:08:01;12.20;91.90
29345;DHT22;16339;48.748;2.222;2023-02-24T07:11:02;12.20;91.70
29345;DHT22;16339;48.748;2.222;2023-02-24T07:13:55;12.10;91.40
29345;DHT22;16339;48.748;2.222;2023-02-24T07:20:22;12.10;91.30
29345;DHT22;16339;48.748;2.222;2023-02-24T07:26:18;11.90;91.10
29345;DHT22;16339;48.748;2.222;2023-02-24T07:29:02;11.80;91.20
29345;DHT22;16339;48.748;2.222;2023-02-24T07:31:38;11.90;91.30
29345;DHT22;16339;48.748;2.222;2023-02-24T07:34:19;11.70;91.20
29345;DHT22;16339;48.748;2.222;2023-02-24T07:36:58;11.50;91.30
29345;DHT22;16339;48.748;2.222;2023-02-24T07:39:33;11.40;91.30
29345;DHT22;16339;48.748;2.222;2023-02-24T07:45:10;11.50;91.70
29345;DHT22;16339;48.748;2.222;2023-02-24T09:54:32;12.20;87.00
29345;DHT22;16339;48.748;2.222;2023-02-24T09:57:22;12.20;87.60
29345;DHT22;16339;48.748;2.222;2023-02-24T10:28:06;12.20;85.90
